Terminal Aerodrome Forecast
Issued by NWS

Home | Current Version | Previous Version | Text Only | Print | Product List | Glossary On
Versions: 1 2 3 4 5 6 7 8 9 10 11 12 13 14 15 16 17 18
000
FTUS45 KVEF 062323
TAFVGT
TAF
KVGT 062323Z 0700/0724 15010KT P6SM VCSH BKN100 BKN200
     FM070200 22006KT P6SM SCT090 SCT250
     FM071100 16006KT P6SM FEW080 SCT100 SCT250=

USA.gov is the U.S. government's official web portal to all federal, state and local government web resources and services.